createdAt,value
2023-04-24T00:01:26.891Z,97800.50
2023-04-24T00:03:54.182Z,97801.50
2023-04-24T00:06:21.511Z,97807.47
2023-04-24T00:08:48.542Z,97796.56
2023-04-24T00:11:15.264Z,97799.66
2023-04-24T00:13:42.369Z,97798.97
2023-04-24T00:16:09.152Z,97794.22
2023-04-24T00:18:36.268Z,97792.88
2023-04-24T00:21:03.900Z,97790.16
2023-04-24T00:23:31.349Z,97789.13
2023-04-24T00:25:58.076Z,97786.59
2023-04-24T00:28:25.103Z,97787.06
2023-04-24T00:30:51.883Z,97784.34
2023-04-24T00:33:18.903Z,97782.47
2023-04-24T00:35:45.711Z,97780.13
2023-04-24T00:38:12.722Z,97773.81
2023-04-24T00:40:39.603Z,97776.72
2023-04-24T00:43:08.323Z,97775.03
2023-04-24T00:45:36.137Z,97771.28
2023-04-24T00:48:03.325Z,97766.41
2023-04-24T00:50:30.266Z,97767.06
2023-04-24T00:52:57.483Z,97763.47
2023-04-24T00:55:24.314Z,97753.81
2023-04-24T00:57:51.586Z,97752.28
2023-04-24T01:00:18.421Z,97749.75
2023-04-24T01:02:46.292Z,97748.06
2023-04-24T01:05:14.285Z,97750.97
2023-04-24T01:07:44.905Z,97749.75
2023-04-24T01:10:12.537Z,97745.53
2023-04-24T01:12:39.843Z,97747.31
2023-04-24T01:15:07.658Z,97747.47
2023-04-24T01:17:34.824Z,97738.78
2023-04-24T01:20:01.783Z,97741.84
2023-04-24T01:22:28.957Z,97746.63
2023-04-24T01:24:55.735Z,97741.00
2023-04-24T01:27:22.827Z,97733.69
2023-04-24T01:29:50.394Z,97735.56
2023-04-24T01:32:17.561Z,97735.72
2023-04-24T01:34:44.361Z,97730.28
2023-04-24T01:37:11.673Z,97730.97
2023-04-24T01:39:38.642Z,97728.63
2023-04-24T01:42:06.387Z,97734.59
2023-04-24T01:44:33.152Z,97731.75
2023-04-24T01:47:01.695Z,97734.59
2023-04-24T01:49:28.554Z,97733.75
2023-04-24T01:51:55.760Z,97730.16
2023-04-24T01:54:22.503Z,97731.94
2023-04-24T01:56:49.599Z,97731.75
2023-04-24T01:59:16.540Z,97730.75
2023-04-24T02:01:43.570Z,97731.94
2023-04-24T02:04:10.474Z,97732.59
2023-04-24T02:06:37.600Z,97734.84
2023-04-24T02:09:04.494Z,97723.78
2023-04-24T02:11:31.655Z,97728.38
2023-04-24T02:13:58.703Z,97720.41
2023-04-24T02:16:26.018Z,97725.53
2023-04-24T02:18:52.926Z,97725.19
2023-04-24T02:21:20.058Z,97721.78
2023-04-24T02:23:46.805Z,97716.72
2023-04-24T02:26:14.020Z,97715.19
2023-04-24T02:28:40.889Z,97713.31
2023-04-24T02:31:08.078Z,97712.16
2023-04-24T02:33:34.884Z,97709.44
2023-04-24T02:36:02.938Z,97698.09
2023-04-24T02:38:30.361Z,97703.84
2023-04-24T02:40:57.467Z,97703.47
2023-04-24T02:43:24.306Z,97705.84
2023-04-24T02:45:51.439Z,97705.03
2023-04-24T02:48:18.334Z,97701.47
2023-04-24T02:50:45.903Z,97703.34
2023-04-24T02:53:12.697Z,97696.22
2023-04-24T02:55:39.730Z,97698.94
2023-04-24T02:58:07.056Z,97699.47
2023-04-24T03:00:34.289Z,97702.69
2023-04-24T03:03:01.295Z,97701.00
2023-04-24T03:05:28.661Z,97697.13
2023-04-24T03:07:55.508Z,97705.78
2023-04-24T03:10:23.785Z,97698.16
2023-04-24T03:12:50.732Z,97694.59
2023-04-24T03:15:17.822Z,97698.16
2023-04-24T03:17:44.644Z,97689.16
2023-04-24T03:20:11.807Z,97679.97
2023-04-24T03:22:38.561Z,97680.88
2023-04-24T03:25:06.247Z,97680.16
2023-04-24T03:27:33.074Z,97680.38
2023-04-24T03:30:00.198Z,97677.13
2023-04-24T03:32:26.940Z,97677.44
2023-04-24T03:34:54.347Z,97672.91
2023-04-24T03:37:21.130Z,97680.78
2023-04-24T03:39:48.212Z,97675.88
2023-04-24T03:42:15.003Z,97680.81
2023-04-24T03:44:42.052Z,97677.63
2023-04-24T03:47:08.830Z,97674.22
2023-04-24T03:49:35.909Z,97681.34
2023-04-24T03:52:02.682Z,97677.31
2023-04-24T03:54:29.755Z,97681.53
2023-04-24T03:56:56.551Z,97684.41
2023-04-24T03:59:23.602Z,97685.28
2023-04-24T04:01:50.500Z,97689.84
2023-04-24T04:04:17.965Z,97695.09
2023-04-24T04:06:45.243Z,97684.22
2023-04-24T04:09:12.285Z,97693.75
2023-04-24T04:11:39.149Z,97689.63
2023-04-24T04:14:06.389Z,97686.72
2023-04-24T04:16:33.321Z,97686.91
2023-04-24T04:19:00.426Z,97687.25
2023-04-24T04:21:28.136Z,97685.59
2023-04-24T04:23:55.269Z,97687.75
2023-04-24T04:26:22.244Z,97688.44
2023-04-24T04:28:50.051Z,97686.56
2023-04-24T04:31:16.918Z,97695.53
2023-04-24T04:33:44.045Z,97683.19
2023-04-24T04:36:10.958Z,97685.59
2023-04-24T04:38:38.162Z,97682.53
2023-04-24T04:41:05.417Z,97678.28
2023-04-24T04:43:33.649Z,97678.09
2023-04-24T04:46:01.788Z,97682.00
2023-04-24T04:48:29.792Z,97680.16
2023-04-24T04:50:56.631Z,97679.47
2023-04-24T04:53:23.721Z,97685.91
2023-04-24T04:55:50.555Z,97689.63
2023-04-24T04:58:17.710Z,97689.31
2023-04-24T05:00:45.188Z,97681.16
2023-04-24T05:03:20.781Z,97677.25
2023-04-24T05:05:48.334Z,97680.16
2023-04-24T05:10:45.275Z,97677.97
2023-04-24T05:13:14.054Z,97675.13
2023-04-24T05:15:41.042Z,97675.28
2023-04-24T05:18:08.268Z,97672.44
2023-04-24T05:20:35.065Z,97666.34
2023-04-24T05:23:02.131Z,97667.66
2023-04-24T05:25:28.886Z,97667.00
2023-04-24T05:27:55.939Z,97676.69
2023-04-24T05:30:22.665Z,97668.31
2023-04-24T05:32:49.708Z,97662.06
2023-04-24T05:35:16.532Z,97674.81
2023-04-24T05:37:43.587Z,97675.13
2023-04-24T05:40:10.667Z,97674.41
2023-04-24T05:42:37.734Z,97666.22
2023-04-24T05:45:05.436Z,97678.59
2023-04-24T05:47:32.525Z,97669.91
2023-04-24T05:49:59.278Z,97672.63
2023-04-24T05:52:26.755Z,97672.09
2023-04-24T05:54:53.477Z,97667.78
2023-04-24T05:57:20.731Z,97664.91
2023-04-24T05:59:47.482Z,97665.06
2023-04-24T06:02:14.605Z,97674.81
2023-04-24T06:04:41.537Z,97672.63
2023-04-24T06:07:08.786Z,97668.13
2023-04-24T06:09:35.604Z,97669.75
2023-04-24T06:12:03.527Z,97667.72
2023-04-24T06:14:30.459Z,97667.44
2023-04-24T06:16:57.749Z,97663.16
2023-04-24T06:19:24.745Z,97665.97
2023-04-24T06:21:51.956Z,97664.75
2023-04-24T06:24:18.714Z,97668.63
2023-04-24T06:26:46.114Z,97666.19
2023-04-24T06:29:12.929Z,97666.28
2023-04-24T06:31:40.090Z,97662.16
2023-04-24T06:34:06.910Z,97667.25
2023-04-24T06:36:35.636Z,97654.66
2023-04-24T06:39:02.579Z,97668.06
2023-04-24T06:41:30.153Z,97658.69
2023-04-24T06:43:56.951Z,97660.47
2023-04-24T06:46:27.068Z,97665.75
2023-04-24T06:48:56.718Z,97663.50
2023-04-24T06:51:27.674Z,97661.94
2023-04-24T06:53:54.800Z,97657.13
2023-04-24T06:56:22.012Z,97661.19
2023-04-24T06:58:49.018Z,97658.56
2023-04-24T07:01:16.120Z,97655.25
2023-04-24T07:03:43.206Z,97658.94
2023-04-24T07:06:11.206Z,97653.47
2023-04-24T07:08:38.360Z,97657.13
2023-04-24T07:11:05.606Z,97653.66
2023-04-24T07:13:32.446Z,97656.84
2023-04-24T07:15:59.614Z,97660.03
2023-04-24T07:18:26.421Z,97661.41
2023-04-24T07:20:53.531Z,97658.09
2023-04-24T07:23:21.633Z,97662.63
2023-04-24T07:25:48.769Z,97651.13
2023-04-24T07:28:15.699Z,97655.16
2023-04-24T07:30:42.805Z,97646.41
2023-04-24T07:33:09.633Z,97653.00
2023-04-24T07:35:36.766Z,97649.13
2023-04-24T07:38:03.548Z,97646.22
2023-04-24T07:40:30.984Z,97650.91
2023-04-24T07:42:57.878Z,97650.59
2023-04-24T07:45:27.032Z,97651.44
2023-04-24T07:47:53.850Z,97653.66
2023-04-24T07:50:21.223Z,97651.38
2023-04-24T07:52:48.638Z,97648.31
2023-04-24T07:55:15.853Z,97643.94
2023-04-24T07:57:42.804Z,97642.91
2023-04-24T08:00:10.471Z,97642.50
2023-04-24T08:02:37.580Z,97629.75
2023-04-24T08:05:05.209Z,97638.66
2023-04-24T08:07:32.484Z,97644.66
2023-04-24T08:10:00.424Z,97635.66
2023-04-24T08:12:27.322Z,97642.00
2023-04-24T08:14:54.425Z,97627.97
2023-04-24T08:17:21.270Z,97634.53
2023-04-24T08:19:52.218Z,97625.31
2023-04-24T08:22:19.089Z,97631.25
2023-04-24T08:24:46.297Z,97633.38
2023-04-24T08:27:13.150Z,97626.47
2023-04-24T08:29:40.449Z,97632.25
2023-04-24T08:32:07.865Z,97630.38
2023-04-24T08:34:35.714Z,97639.22
2023-04-24T08:37:02.494Z,97635.03
2023-04-24T08:39:29.535Z,97630.41
2023-04-24T08:41:56.446Z,97631.69
2023-04-24T08:44:23.633Z,97630.66
2023-04-24T08:46:50.650Z,97632.78
2023-04-24T08:49:18.380Z,97627.72
2023-04-24T08:51:45.846Z,97624.78
2023-04-24T08:54:13.664Z,97627.34
2023-04-24T08:56:40.746Z,97626.28
2023-04-24T08:59:07.995Z,97628.59
2023-04-24T09:01:35.040Z,97629.03
2023-04-24T09:04:05.572Z,97625.44
2023-04-24T09:06:33.208Z,97621.41
2023-04-24T09:09:04.409Z,97631.34
2023-04-24T09:11:31.642Z,97629.19
2023-04-24T09:13:58.830Z,97633.00
2023-04-24T09:16:26.577Z,97634.22
2023-04-24T09:18:53.754Z,97634.44
2023-04-24T09:21:22.519Z,97631.91
2023-04-24T09:24:00.354Z,97638.19
2023-04-24T09:26:27.950Z,97627.00
2023-04-24T09:28:55.415Z,97626.38
2023-04-24T09:31:23.742Z,97631.00
2023-04-24T09:34:01.817Z,97629.72
2023-04-24T09:36:29.951Z,97630.13
2023-04-24T09:38:59.310Z,97632.59
2023-04-24T09:41:26.058Z,97624.16
2023-04-24T09:43:54.951Z,97628.75
2023-04-24T09:46:23.346Z,97625.34
2023-04-24T09:48:50.483Z,97627.22
2023-04-24T09:51:17.739Z,97623.63
2023-04-24T09:53:48.234Z,97633.81
2023-04-24T09:56:15.100Z,97635.94
2023-04-24T09:58:42.247Z,97635.50
2023-04-24T10:01:09.242Z,97636.81
2023-04-24T10:03:36.610Z,97629.59
2023-04-24T10:06:09.507Z,97630.63
2023-04-24T10:08:37.201Z,97628.91
2023-04-24T10:11:04.100Z,97629.75
2023-04-24T10:13:31.255Z,97625.94
2023-04-24T10:15:58.083Z,97633.31
2023-04-24T10:18:25.351Z,97627.41
2023-04-24T10:20:52.224Z,97630.81
2023-04-24T10:23:20.411Z,97631.22
2023-04-24T10:25:47.239Z,97638.41
2023-04-24T10:28:14.332Z,97639.34
2023-04-24T10:30:41.108Z,97642.22
2023-04-24T10:33:09.341Z,97636.75
2023-04-24T10:35:38.961Z,97632.91
2023-04-24T10:38:13.182Z,97641.78
2023-04-24T10:40:40.412Z,97642.19
2023-04-24T10:43:09.834Z,97635.41
2023-04-24T10:45:36.713Z,97636.28
2023-04-24T10:48:06.222Z,97633.97
2023-04-24T10:50:53.691Z,97634.19
2023-04-24T10:53:24.140Z,97634.63
2023-04-24T10:55:52.353Z,97630.81
2023-04-24T10:58:23.229Z,97631.47
2023-04-24T11:01:00.571Z,97630.84
2023-04-24T11:03:29.284Z,97627.06
2023-04-24T11:05:59.304Z,97631.31
2023-04-24T11:08:40.042Z,97631.53
2023-04-24T11:11:11.302Z,97635.53
2023-04-24T11:13:56.980Z,97634.06
2023-04-24T11:16:34.841Z,97629.22
2023-04-24T11:19:08.995Z,97632.81
2023-04-24T11:21:58.471Z,97636.25
2023-04-24T11:24:40.803Z,97630.97
2023-04-24T11:27:12.785Z,97637.09
2023-04-24T11:29:40.901Z,97636.28
2023-04-24T11:32:26.605Z,97640.28
2023-04-24T11:35:28.822Z,97638.81
2023-04-24T11:40:29.082Z,97636.53
2023-04-24T11:43:00.440Z,97641.81
2023-04-24T11:45:29.347Z,97641.59
2023-04-24T11:47:56.170Z,97639.28
2023-04-24T11:50:24.380Z,97643.91
2023-04-24T11:52:51.409Z,97634.88
2023-04-24T11:55:18.734Z,97642.28
2023-04-24T11:57:58.724Z,97637.00
2023-04-24T12:00:32.869Z,97634.06
2023-04-24T12:03:08.736Z,97633.03
2023-04-24T12:05:36.255Z,97642.28
2023-04-24T12:08:03.215Z,97634.91
2023-04-24T12:10:31.154Z,97636.00
2023-04-24T12:12:58.442Z,97629.03
2023-04-24T12:15:25.781Z,97636.00
2023-04-24T12:17:53.116Z,97634.09
2023-04-24T12:20:33.756Z,97638.72
2023-04-24T12:23:01.492Z,97630.09
2023-04-24T12:25:29.930Z,97632.19
2023-04-24T12:28:13.394Z,97627.13
2023-04-24T12:30:42.395Z,97633.88
2023-04-24T12:33:09.265Z,97639.53
2023-04-24T12:35:36.974Z,97636.16
2023-04-24T12:38:09.046Z,97638.72
2023-04-24T12:40:36.292Z,97626.69
2023-04-24T12:43:03.408Z,97629.41
2023-04-24T12:45:30.506Z,97637.41
2023-04-24T12:47:57.314Z,97628.97
2023-04-24T12:50:24.511Z,97631.09
2023-04-24T12:52:51.291Z,97635.75
2023-04-24T12:55:18.389Z,97628.97
2023-04-24T12:57:45.138Z,97628.97
2023-04-24T13:00:12.656Z,97632.13
2023-04-24T13:02:39.611Z,97638.25
2023-04-24T13:05:07.176Z,97628.13
2023-04-24T13:07:33.992Z,97623.28
2023-04-24T13:10:01.162Z,97625.59
2023-04-24T13:12:28.026Z,97626.84
2023-04-24T13:14:55.313Z,97625.16
2023-04-24T13:17:22.754Z,97622.44
2023-04-24T13:19:51.146Z,97621.81
2023-04-24T13:22:19.765Z,97614.63
2023-04-24T13:24:49.530Z,97609.38
2023-04-24T13:27:16.891Z,97611.06
2023-04-24T13:29:44.018Z,97613.59
2023-04-24T13:32:10.915Z,97604.50
2023-04-24T13:34:38.266Z,97602.63
2023-04-24T13:37:05.337Z,97604.50
2023-04-24T13:39:32.685Z,97598.19
2023-04-24T13:41:59.512Z,97595.25
2023-04-24T13:44:26.599Z,97603.88
2023-04-24T13:46:55.160Z,97597.13
2023-04-24T13:49:22.433Z,97606.53
2023-04-24T13:51:49.220Z,97593.94
2023-04-24T13:54:16.265Z,97586.38
2023-04-24T13:56:43.049Z,97592.63
2023-04-24T13:59:10.219Z,97591.41
2023-04-24T14:01:37.154Z,97591.84
2023-04-24T14:04:04.562Z,97592.88
2023-04-24T14:06:32.270Z,97597.06
2023-04-24T14:08:59.391Z,97593.66
2023-04-24T14:11:26.226Z,97590.94
2023-04-24T14:13:53.376Z,97592.38
2023-04-24T14:16:20.206Z,97586.69
2023-04-24T14:18:46.993Z,97594.06
2023-04-24T14:21:14.099Z,97595.72
2023-04-24T14:23:40.895Z,97598.03
2023-04-24T14:26:08.629Z,97595.69
2023-04-24T14:28:35.473Z,97591.47
2023-04-24T14:31:02.549Z,97588.72
2023-04-24T14:33:29.607Z,97591.88
2023-04-24T14:35:56.754Z,97595.59
2023-04-24T14:38:23.656Z,97595.75
2023-04-24T14:43:21.092Z,97591.97
2023-04-24T14:45:48.161Z,97594.06
2023-04-24T14:48:15.518Z,97590.25
2023-04-24T14:50:42.618Z,97587.94
2023-04-24T14:53:09.407Z,97587.03
2023-04-24T14:55:37.304Z,97592.28
2023-04-24T14:58:04.919Z,97592.28
2023-04-24T15:00:32.362Z,97592.91
2023-04-24T15:02:59.472Z,97594.31
2023-04-24T15:05:26.786Z,97589.94
2023-04-24T15:07:53.825Z,97583.84
2023-04-24T15:10:23.875Z,97581.75
2023-04-24T15:12:50.874Z,97578.59
2023-04-24T15:15:18.020Z,97583.13
2023-04-24T15:17:44.786Z,97580.38
2023-04-24T15:20:12.219Z,97572.56
2023-04-24T15:22:39.097Z,97573.88
2023-04-24T15:25:06.894Z,97569.44
2023-04-24T15:27:41.864Z,97571.97
2023-04-24T15:30:09.458Z,97569.66
2023-04-24T15:32:36.313Z,97572.13
2023-04-24T15:35:08.451Z,97570.25
2023-04-24T15:37:37.143Z,97570.00
2023-04-24T15:40:06.632Z,97568.53
2023-04-24T15:42:33.717Z,97562.88
2023-04-24T15:45:00.908Z,97562.41
2023-04-24T15:47:27.805Z,97564.50
2023-04-24T15:49:54.967Z,97560.94
2023-04-24T15:52:22.021Z,97564.06
2023-04-24T15:54:49.232Z,97558.97
2023-04-24T15:57:16.103Z,97564.63
2023-04-24T15:59:43.373Z,97564.38
2023-04-24T16:02:10.499Z,97560.00
2023-04-24T16:04:37.836Z,97559.56
2023-04-24T16:07:04.847Z,97564.16
2023-04-24T16:09:32.002Z,97561.81
2023-04-24T16:11:58.775Z,97565.97
2023-04-24T16:14:26.201Z,97562.41
2023-04-24T16:16:53.072Z,97560.91
2023-04-24T16:19:20.379Z,97559.44
2023-04-24T16:21:47.182Z,97561.50
2023-04-24T16:24:14.247Z,97562.56
2023-04-24T16:26:41.190Z,97559.59
2023-04-24T16:29:08.258Z,97556.00
2023-04-24T16:31:35.045Z,97557.44
2023-04-24T16:34:02.184Z,97558.66
2023-04-24T16:36:29.056Z,97561.13
2023-04-24T16:38:56.269Z,97561.31
2023-04-24T16:41:23.043Z,97551.19
2023-04-24T16:43:50.820Z,97552.41
2023-04-24T16:46:17.675Z,97561.16
2023-04-24T16:48:44.786Z,97554.50
2023-04-24T16:51:11.552Z,97564.56
2023-04-24T16:53:38.678Z,97562.41
2023-04-24T16:56:05.697Z,97561.16
2023-04-24T16:58:32.796Z,97562.16
2023-04-24T17:00:59.678Z,97566.97
2023-04-24T17:03:26.959Z,97564.81
2023-04-24T17:05:53.854Z,97568.19
2023-04-24T17:08:22.622Z,97564.16
2023-04-24T17:10:49.511Z,97569.19
2023-04-24T17:13:16.634Z,97562.66
2023-04-24T17:15:43.466Z,97573.75
2023-04-24T17:18:11.183Z,97568.47
2023-04-24T17:20:37.946Z,97571.41
2023-04-24T17:23:05.016Z,97572.84
2023-04-24T17:25:31.800Z,97576.41
2023-04-24T17:27:58.890Z,97580.94
2023-04-24T17:30:25.723Z,97581.13
2023-04-24T17:32:52.868Z,97586.56
2023-04-24T17:35:22.136Z,97591.56
2023-04-24T17:37:49.808Z,97599.28
2023-04-24T17:40:17.623Z,97597.97
2023-04-24T17:42:44.774Z,97600.69
2023-04-24T17:45:12.152Z,97608.22
2023-04-24T17:47:39.268Z,97608.75
2023-04-24T17:50:06.549Z,97610.84
2023-04-24T17:52:34.386Z,97609.31
2023-04-24T17:55:01.461Z,97618.56
2023-04-24T17:57:28.982Z,97621.66
2023-04-24T17:59:55.778Z,97620.72
2023-04-24T18:02:22.932Z,97622.22
2023-04-24T18:04:50.730Z,97618.00
2023-04-24T18:07:18.821Z,97630.47
2023-04-24T18:09:45.680Z,97630.28
2023-04-24T18:12:12.850Z,97631.16
2023-04-24T18:14:39.654Z,97639.41
2023-04-24T18:17:07.689Z,97632.72
2023-04-24T18:19:34.501Z,97635.97
2023-04-24T18:22:01.617Z,97638.53
2023-04-24T18:24:28.398Z,97637.56
2023-04-24T18:26:55.512Z,97648.84
2023-04-24T18:29:22.323Z,97641.72
2023-04-24T18:31:49.965Z,97645.81
2023-04-24T18:34:16.869Z,97646.66
2023-04-24T18:36:43.986Z,97645.34
2023-04-24T18:39:10.872Z,97645.81
2023-04-24T18:41:37.953Z,97646.47
2023-04-24T18:44:04.722Z,97657.09
2023-04-24T18:46:34.917Z,97651.16
2023-04-24T18:49:01.864Z,97657.84
2023-04-24T18:51:28.916Z,97656.97
2023-04-24T18:53:55.855Z,97660.75
2023-04-24T18:56:23.083Z,97654.44
2023-04-24T18:58:50.331Z,97649.84
2023-04-24T19:01:17.843Z,97657.16
2023-04-24T19:03:44.838Z,97661.75
2023-04-24T19:06:12.039Z,97669.00
2023-04-24T19:08:38.842Z,97671.53
2023-04-24T19:11:06.057Z,97672.53
2023-04-24T19:13:32.879Z,97666.44
2023-04-24T19:16:00.027Z,97665.78
2023-04-24T19:18:27.188Z,97670.94
2023-04-24T19:20:54.282Z,97670.84
2023-04-24T19:23:21.317Z,97678.13
2023-04-24T19:25:48.589Z,97671.19
2023-04-24T19:28:15.382Z,97671.66
2023-04-24T19:30:42.651Z,97673.06
2023-04-24T19:33:09.510Z,97671.38
2023-04-24T19:35:36.679Z,97679.25
2023-04-24T19:38:03.476Z,97678.06
2023-04-24T19:40:30.739Z,97681.31
2023-04-24T19:42:57.631Z,97674.22
2023-04-24T19:45:24.723Z,97679.84
2023-04-24T19:47:51.554Z,97678.13
2023-04-24T19:50:18.652Z,97676.28
2023-04-24T19:52:45.462Z,97686.13
2023-04-24T19:55:12.724Z,97690.06
2023-04-24T19:57:39.531Z,97690.06
2023-04-24T20:00:08.144Z,97692.97
2023-04-24T20:02:35.352Z,97692.00
2023-04-24T20:05:02.645Z,97687.81
2023-04-24T20:07:29.554Z,97689.53
2023-04-24T20:09:56.670Z,97688.38
2023-04-24T20:12:23.487Z,97683.44
2023-04-24T20:14:50.597Z,97692.78
2023-04-24T20:17:17.462Z,97688.19
2023-04-24T20:19:44.760Z,97684.44
2023-04-24T20:22:13.198Z,97689.75
2023-04-24T20:24:40.608Z,97692.00
2023-04-24T20:27:07.385Z,97697.59
2023-04-24T20:29:35.005Z,97695.25
2023-04-24T20:32:01.808Z,97699.19
2023-04-24T20:34:28.871Z,97697.44
2023-04-24T20:36:57.262Z,97700.84
2023-04-24T20:39:24.350Z,97700.84
2023-04-24T20:41:51.299Z,97701.72
2023-04-24T20:44:18.434Z,97707.38
2023-04-24T20:46:45.416Z,97711.75
2023-04-24T20:49:12.538Z,97708.03
2023-04-24T20:51:39.350Z,97710.09
2023-04-24T20:54:06.615Z,97712.47
2023-04-24T20:56:33.436Z,97716.72
2023-04-24T20:59:00.807Z,97717.59
2023-04-24T21:01:27.736Z,97718.78
2023-04-24T21:03:54.854Z,97714.06
2023-04-24T21:06:21.964Z,97713.03
2023-04-24T21:08:49.224Z,97714.38
2023-04-24T21:11:15.981Z,97712.69
2023-04-24T21:13:43.080Z,97715.63
2023-04-24T21:16:09.877Z,97713.56
2023-04-24T21:18:41.243Z,97720.38
2023-04-24T21:21:11.802Z,97716.75
2023-04-24T21:23:39.118Z,97719.53
2023-04-24T21:26:06.177Z,97714.13
2023-04-24T21:28:33.279Z,97717.31
2023-04-24T21:31:00.239Z,97729.72
2023-04-24T21:33:27.358Z,97726.50
2023-04-24T21:35:54.185Z,97733.63
2023-04-24T21:38:24.450Z,97733.97
2023-04-24T21:40:51.768Z,97739.41
2023-04-24T21:43:19.709Z,97738.19
2023-04-24T21:45:48.528Z,97732.75
2023-04-24T21:48:15.619Z,97731.44
2023-04-24T21:50:42.405Z,97734.31
2023-04-24T21:53:09.530Z,97731.13
2023-04-24T21:55:36.371Z,97737.38
2023-04-24T21:58:03.650Z,97734.16
2023-04-24T22:00:30.403Z,97737.56
2023-04-24T22:03:54.481Z,97733.84
2023-04-24T22:06:21.324Z,97731.81
2023-04-24T22:08:48.362Z,97724.38
2023-04-24T22:11:25.639Z,97734.03
2023-04-24T22:13:54.428Z,97728.44
2023-04-24T22:16:22.862Z,97736.09
2023-04-24T22:18:50.067Z,97728.59
2023-04-24T22:21:16.870Z,97722.16
2023-04-24T22:23:43.882Z,97720.97
2023-04-24T22:26:10.601Z,97721.84
2023-04-24T22:28:37.700Z,97724.38
2023-04-24T22:31:04.480Z,97731.00
2023-04-24T22:33:31.587Z,97731.34
2023-04-24T22:35:58.313Z,97721.34
2023-04-24T22:38:25.350Z,97715.75
2023-04-24T22:40:52.030Z,97725.56
2023-04-24T22:45:58.689Z,97712.31
2023-04-24T22:48:25.985Z,97710.47
2023-04-24T22:50:52.725Z,97717.06
2023-04-24T22:53:19.855Z,97720.47
2023-04-24T22:55:46.585Z,97719.28
2023-04-24T22:58:13.572Z,97708.28
2023-04-24T23:00:40.265Z,97710.00
2023-04-24T23:03:07.419Z,97702.84
2023-04-24T23:05:34.221Z,97704.03
2023-04-24T23:08:01.281Z,97702.84
2023-04-24T23:10:28.521Z,97706.94
2023-04-24T23:12:55.544Z,97699.81
2023-04-24T23:15:22.298Z,97707.78
2023-04-24T23:17:49.485Z,97703.53
2023-04-24T23:20:16.612Z,97705.91
2023-04-24T23:22:43.642Z,97702.53
2023-04-24T23:25:10.984Z,97703.03
2023-04-24T23:27:37.956Z,97705.75
2023-04-24T23:30:06.721Z,97707.28
2023-04-24T23:32:33.905Z,97713.22
2023-04-24T23:35:00.742Z,97715.59
2023-04-24T23:37:27.875Z,97718.13
2023-04-24T23:39:54.568Z,97724.06
2023-04-24T23:42:21.604Z,97716.59
2023-04-24T23:44:48.299Z,97722.03
2023-04-24T23:47:15.342Z,97715.75
2023-04-24T23:49:41.993Z,97711.72
2023-04-24T23:52:09.015Z,97717.31
2023-04-24T23:54:35.807Z,97717.25
2023-04-24T23:57:03.321Z,97718.81
2023-04-24T23:59:30.662Z,97710.16
